Address 0x8b009ac9948feecf284dbf1adab10fd13a09a283 1

 
 
Txn Hash Method
Block
From
To
Value [Txn Fee]
0x416734a201d33fc4e9818a52b144dc0f2c180a061716a3af63e8c0110d11456bCreate Order301649632022-06-30 6:15:1013 hrs 17 mins ago0x8b009ac9948feecf284dbf1adab10fd13a09a283OUT 0x13794ce30b05b4e6f04820d5064d089ec2afdaeb0 MATIC0.001835460233 30.000003814
0x0a889cf4763aa5b5032b49f8f49c24825ff24fd57cf2639648b7e8e8c969b54cCreate Order301647152022-06-30 6:06:3813 hrs 26 mins ago0x8b009ac9948feecf284dbf1adab10fd13a09a283OUT 0x13794ce30b05b4e6f04820d5064d089ec2afdaeb0 MATIC0.001835477898 30.000292553
0xf3dc0002fc45aa6057e5b75bc11b4ed00a149e70ec340744dbe12597d86e7a17Create Order301646942022-06-30 6:05:5613 hrs 26 mins ago0x8b009ac9948feecf284dbf1adab10fd13a09a283OUT 0x13794ce30b05b4e6f04820d5064d089ec2afdaeb0 MATIC0.002177759549 35.594775413
0xcbb42aaa3e209bfc9290dd6c5883c376d9fd6d44bddfec55845e474666324f5cCreate Order301101702022-06-28 20:19:541 day 23 hrs ago0x8b009ac9948feecf284dbf1adab10fd13a09a283OUT 0x13794ce30b05b4e6f04820d5064d089ec2afdaeb0 MATIC0.00175146 30.000000012
0xfb16c66f0e9eff7ea7f7bf35233b71619b8a7d83505c0997f27add4abedbbfbcCreate Order301100922022-06-28 20:17:141 day 23 hrs ago0x8b009ac9948feecf284dbf1adab10fd13a09a283OUT 0x13794ce30b05b4e6f04820d5064d089ec2afdaeb0 MATIC0.002515520477 41.11536853
0x0d566cc00f0eccd8c2e93fc1ddeab93fe171363f7865aa2e9c10c20c1ad10f49Create Order301099382022-06-28 20:11:541 day 23 hrs ago0x8b009ac9948feecf284dbf1adab10fd13a09a283OUT 0x13794ce30b05b4e6f04820d5064d089ec2afdaeb0 MATIC0.004652460002 30.000000013
0x3001b3cade79480561e8939513af7da95a2f513ed3629dc66b6595a7230e5befSend To Scouting301083552022-06-28 19:13:152 days 19 mins ago0x8b009ac9948feecf284dbf1adab10fd13a09a283OUT 0x28f49ba7b20cad0a8256be34484cf733b0f9a88f0 MATIC0.013581630006 30.000000014
0x5443ed6b484a2b2d39d5afe57487dc1f12501383709fdd9f0422baa2fe5aeedfCreate Order301082982022-06-28 19:11:172 days 21 mins ago0x8b009ac9948feecf284dbf1adab10fd13a09a283OUT 0x13794ce30b05b4e6f04820d5064d089ec2afdaeb0 MATIC0.004652460002 30.000000013
0x500f9ed1aba1e26bf55e284c6aa71da65d7f21fb05837e6c95022af3aaadcf62Mint Players301071152022-06-28 18:28:272 days 1 hr ago0x8b009ac9948feecf284dbf1adab10fd13a09a283OUT 0x28f49ba7b20cad0a8256be34484cf733b0f9a88f0 MATIC0.03532489294 30.00001099
0xf3a80ecfcdafd9f78755355bd4d25362dcfde5d1112fa0c5bb135f31b1aff59bFinish Scouting301069482022-06-28 18:22:452 days 1 hr ago0x8b009ac9948feecf284dbf1adab10fd13a09a283OUT 0x28f49ba7b20cad0a8256be34484cf733b0f9a88f0 MATIC0.011807209454 30.486346208
0x5d4ca5d9b48685333b39109d8385c0de78224b0ee2b1919d94bd3607aca58953Execute Order300698412022-06-27 19:19:323 days 13 mins ago0x8b009ac9948feecf284dbf1adab10fd13a09a283OUT 0x13794ce30b05b4e6f04820d5064d089ec2afdaeb0 MATIC0.008000313029 52.849207487
0x67b2b1cf56f5e4e8a572a9ab07e6e186303cd6cf728a4fe405f92d4f36e37904Swap Exact Token...300596262022-06-27 12:48:443 days 6 hrs ago0x8b009ac9948feecf284dbf1adab10fd13a09a283OUT SushiSwap: Router0 MATIC0.006309688083 60.517619874
0xf1fbf789f709203154b3a8f93645f5e6a9f6d13b247a2102bac280e34e6c554cCreate Order300289942022-06-26 18:09:534 days 1 hr ago0x8b009ac9948feecf284dbf1adab10fd13a09a283OUT 0x13794ce30b05b4e6f04820d5064d089ec2afdaeb0 MATIC0.005242909033 33.809950562
0x950b373f17e53c5f509d78d6755122afbf5b542bab64273db43352526ab3b260Create Order300289242022-06-26 18:07:254 days 1 hr ago0x8b009ac9948feecf284dbf1adab10fd13a09a283OUT 0x13794ce30b05b4e6f04820d5064d089ec2afdaeb0 MATIC0.004725325611 30.472210041
0x29a03efdbee38ecc3209de375ece0ae05dac771d15b4fe989982dcd8fcbd9304Create Order300289242022-06-26 18:07:254 days 1 hr ago0x8b009ac9948feecf284dbf1adab10fd13a09a283OUT 0x13794ce30b05b4e6f04820d5064d089ec2afdaeb0 MATIC0.004725325611 30.472210041
0x458be28ba57807fdd8c2e792cbbad611fab15e8bdea3c37f451dd8e555f72e03Create Order300289242022-06-26 18:07:254 days 1 hr ago0x8b009ac9948feecf284dbf1adab10fd13a09a283OUT 0x13794ce30b05b4e6f04820d5064d089ec2afdaeb0 MATIC0.002038700554 33.328438041
0x60724d935ef67bb57fd3dd41ad960c3502220d1008d14307e437722418da2673Create Order300289242022-06-26 18:07:254 days 1 hr ago0x8b009ac9948feecf284dbf1adab10fd13a09a283OUT 0x13794ce30b05b4e6f04820d5064d089ec2afdaeb0 MATIC0.0018851356 33.923620674
0xaa87c5c496e7584a8370fdf467b3256fa8dd16ed0ca3258ec6315bd27bb08f86Create Order300289242022-06-26 18:07:254 days 1 hr ago0x8b009ac9948feecf284dbf1adab10fd13a09a283OUT 0x13794ce30b05b4e6f04820d5064d089ec2afdaeb0 MATIC0.004725325611 30.472210041
0xf155bfbb68ef98cac5af44e37f377d76221638f409657f9f2962c1db50466bffCreate Order300286982022-06-26 17:57:334 days 1 hr ago0x8b009ac9948feecf284dbf1adab10fd13a09a283OUT 0x13794ce30b05b4e6f04820d5064d089ec2afdaeb0 MATIC0.004818862307 31.075400189
0x2425c098ef060deeffe2edece53412b7ce51bb5c8c06fbe2df8b065c6434ef93Create Order300286542022-06-26 17:56:014 days 1 hr ago0x8b009ac9948feecf284dbf1adab10fd13a09a283OUT 0x13794ce30b05b4e6f04820d5064d089ec2afdaeb0 MATIC0.004972246489 32.064528856
0x0a6e49fa2fd3dd6245fa867125019064082b290902f156f4fe9ebef5f5560840Create Order300286042022-06-26 17:54:174 days 1 hr ago0x8b009ac9948feecf284dbf1adab10fd13a09a283OUT 0x13794ce30b05b4e6f04820d5064d089ec2afdaeb0 MATIC0.005392044559 34.771680917
0x8e7662a53eaee513b56d319499511c8278ca6fe964c7b6ff6fe8c2bbd4504056Create Order300285502022-06-26 17:52:294 days 1 hr ago0x8b009ac9948feecf284dbf1adab10fd13a09a283OUT 0x13794ce30b05b4e6f04820d5064d089ec2afdaeb0 MATIC0.007852428442 50.637959908
0xf19467befa50d37904e7f9b06dae3e76a973b4f1694e2fda11d5c75b685cc079Create Order300284312022-06-26 17:48:234 days 1 hr ago0x8b009ac9948feecf284dbf1adab10fd13a09a283OUT 0x13794ce30b05b4e6f04820d5064d089ec2afdaeb0 MATIC0.004705835728 30.346525625
0xa6ac5b141093801816524cabbc6896b1975b88c6ead715050cdb23e65e0c32faCreate Order300283792022-06-26 17:46:354 days 1 hr ago0x8b009ac9948feecf284dbf1adab10fd13a09a283OUT 0x13794ce30b05b4e6f04820d5064d089ec2afdaeb0 MATIC0.00475547554 30.66663791
0xa662aec0cb14876d5263e011ae7e7ea26bd32c721c399440ee9c8376bbae8f41Create Order300282922022-06-26 17:43:374 days 1 hr ago0x8b009ac9948feecf284dbf1adab10fd13a09a283OUT 0x13794ce30b05b4e6f04820d5064d089ec2afdaeb0 MATIC0.004753556569 30.654263039
[ Download CSV Export 
Latest 3 internal transactions
Parent Txn Hash Block From To Value
0x2eb05745b46cb586d5a0a27e05cc2c0b6e2b41239960f2b026a2320ad290cc42275966582022-04-26 12:00:0465 days 7 hrs ago Polygon: Airdrop0x8b009ac9948feecf284dbf1adab10fd13a09a2830.1 MATIC
0x5519458c4c43967ad39f05d46347d0ed9a595a77d1d82ec54d7c1d1c108b6150246574082022-02-07 13:18:53143 days 6 hrs ago SushiSwap: Router0x8b009ac9948feecf284dbf1adab10fd13a09a283240.233428486861325742 MATIC
0x97dca94f861d31a60cce47990729a3a29b6172883c6fdccf64d4be3a65028862244972212022-02-03 10:20:03147 days 9 hrs ago Polygon: Airdrop0x8b009ac9948feecf284dbf1adab10fd13a09a2830.1 MATIC
[ Download CSV Export 
Loading

Contract Name:
0 MATIC

Compiler Version
0

Optimization Enabled:
0 MATIC

Other Settings:
-NA-
Block Transaction Gas Used Reward
Age Block Fee Address BC Fee Address Voting Power Jailed Incoming
Block Uncle Number Difficulty Gas Used Reward
Loading
Loading
Make sure to use the "Vote Down" button for any spammy posts, and the "Vote Up" for interesting conversations.